createdAt,value
2022-10-30T00:00:06.114Z,467.65
2022-10-30T00:03:00.269Z,447.30
2022-10-30T00:05:51.590Z,456.25
2022-10-30T00:08:39.647Z,442.30
2022-10-30T00:11:29.364Z,436.27
2022-10-30T00:14:19.139Z,462.58
2022-10-30T00:17:07.079Z,463.65
2022-10-30T00:19:54.991Z,453.45
2022-10-30T00:22:42.894Z,475.08
2022-10-30T00:25:30.811Z,463.13
2022-10-30T00:28:18.760Z,465.55
2022-10-30T00:31:08.544Z,472.58
2022-10-30T00:33:56.553Z,472.08
2022-10-30T00:36:44.500Z,441.50
2022-10-30T00:39:32.471Z,464.00
2022-10-30T00:42:20.605Z,453.20
2022-10-30T00:45:12.251Z,471.95
2022-10-30T00:48:05.281Z,442.73
2022-10-30T00:50:54.354Z,459.90
2022-10-30T00:53:43.960Z,450.85
2022-10-30T00:56:32.772Z,467.38
2022-10-30T00:59:25.324Z,455.98
2022-10-30T01:02:13.552Z,468.83
2022-10-30T01:05:03.955Z,467.52
2022-10-30T01:07:52.182Z,456.45
2022-10-30T01:10:40.638Z,480.90
2022-10-30T01:13:30.158Z,441.98
2022-10-30T01:16:34.362Z,462.23
2022-10-30T01:19:33.945Z,458.45
2022-10-30T01:22:40.954Z,449.65
2022-10-30T01:25:44.090Z,461.27
2022-10-30T01:28:51.276Z,452.88
2022-10-30T01:31:51.617Z,469.90
2022-10-30T01:34:48.073Z,459.17
2022-10-30T01:37:44.820Z,457.02
2022-10-30T01:40:34.150Z,484.17
2022-10-30T01:43:22.313Z,484.88
2022-10-30T01:46:32.573Z,474.42
2022-10-30T01:49:47.991Z,489.98
2022-10-30T01:52:48.482Z,476.58
2022-10-30T01:55:43.233Z,463.80
2022-10-30T01:58:40.079Z,463.98
2022-10-30T02:01:32.860Z,480.65
2022-10-30T02:04:21.352Z,479.75
2022-10-30T02:07:12.628Z,486.42
2022-10-30T02:10:08.935Z,485.80
2022-10-30T02:12:57.195Z,486.40
2022-10-30T02:15:48.302Z,498.33
2022-10-30T02:18:36.284Z,452.60
2022-10-30T02:21:26.785Z,467.50
2022-10-30T02:24:14.731Z,465.80
2022-10-30T02:27:02.670Z,482.13
2022-10-30T02:29:50.532Z,463.33
2022-10-30T02:32:38.716Z,461.77
2022-10-30T02:35:26.881Z,462.67
2022-10-30T02:38:17.227Z,469.92
2022-10-30T02:41:06.424Z,478.67
2022-10-30T02:43:54.448Z,485.02
2022-10-30T02:46:42.688Z,465.15
2022-10-30T02:49:30.699Z,454.75
2022-10-30T02:52:18.657Z,469.60
2022-10-30T02:55:08.542Z,466.52
2022-10-30T02:57:58.984Z,477.08
2022-10-30T03:00:47.020Z,472.10
2022-10-30T03:03:35.197Z,485.05
2022-10-30T03:06:23.141Z,467.10
2022-10-30T03:09:11.743Z,465.52
2022-10-30T03:12:00.962Z,454.52
2022-10-30T03:14:48.875Z,483.05
2022-10-30T03:17:36.912Z,476.73
2022-10-30T03:20:24.840Z,467.42
2022-10-30T03:23:12.717Z,459.33
2022-10-30T03:26:00.888Z,460.55
2022-10-30T03:28:50.933Z,491.40
2022-10-30T03:31:38.843Z,483.75
2022-10-30T03:34:36.608Z,472.27
2022-10-30T03:37:27.673Z,468.95
2022-10-30T03:40:16.423Z,462.88
2022-10-30T03:43:04.568Z,483.17
2022-10-30T03:45:55.305Z,478.95
2022-10-30T03:48:43.200Z,478.73
2022-10-30T03:51:33.987Z,483.25
2022-10-30T03:54:21.865Z,454.45
2022-10-30T03:57:09.819Z,459.60
2022-10-30T04:00:07.756Z,474.35
2022-10-30T04:03:17.872Z,455.33
2022-10-30T04:06:06.856Z,451.95
2022-10-30T04:08:55.553Z,453.10
2022-10-30T04:11:45.126Z,466.92
2022-10-30T04:14:33.338Z,457.30
2022-10-30T04:17:21.331Z,447.17
2022-10-30T04:20:11.792Z,442.85
2022-10-30T04:23:01.769Z,477.58
2022-10-30T04:25:50.069Z,428.35
2022-10-30T04:28:39.153Z,456.73
2022-10-30T04:31:27.132Z,441.27
2022-10-30T04:34:15.333Z,424.58
2022-10-30T04:37:05.333Z,420.10
2022-10-30T04:39:53.337Z,432.85
2022-10-30T04:42:47.785Z,418.23
2022-10-30T04:45:37.468Z,435.00
2022-10-30T04:48:25.985Z,440.80
2022-10-30T04:51:15.966Z,444.48
2022-10-30T04:54:06.916Z,426.92
2022-10-30T04:56:56.348Z,413.98
2022-10-30T04:59:44.337Z,394.25
2022-10-30T05:02:32.356Z,421.02
2022-10-30T05:05:20.598Z,431.67
2022-10-30T05:08:09.765Z,411.35
2022-10-30T05:10:59.395Z,434.00
2022-10-30T05:13:47.437Z,393.35
2022-10-30T05:16:35.625Z,395.52
2022-10-30T05:19:25.613Z,378.02
2022-10-30T05:22:16.427Z,409.02
2022-10-30T05:25:05.074Z,391.77
2022-10-30T05:28:00.559Z,400.40
2022-10-30T05:30:53.471Z,392.85
2022-10-30T05:37:11.693Z,384.13
2022-10-30T05:39:59.846Z,387.20
2022-10-30T05:42:50.163Z,413.08
2022-10-30T05:45:38.452Z,365.92
2022-10-30T05:48:28.443Z,396.40
2022-10-30T05:51:16.663Z,391.20
2022-10-30T05:54:12.942Z,422.95
2022-10-30T05:57:13.048Z,394.52
2022-10-30T06:00:01.800Z,401.65
2022-10-30T06:02:50.579Z,376.35
2022-10-30T06:05:18.234Z,405.52
2022-10-30T06:07:46.631Z,406.23
2022-10-30T06:10:16.020Z,386.88
2022-10-30T06:13:07.937Z,378.67
2022-10-30T06:15:47.492Z,395.70
2022-10-30T06:18:15.202Z,414.95
2022-10-30T06:20:45.949Z,379.85
2022-10-30T06:23:32.106Z,379.98
2022-10-30T06:26:21.618Z,398.80
2022-10-30T06:28:54.913Z,388.38
2022-10-30T06:31:22.523Z,394.90
2022-10-30T06:33:50.186Z,406.20
2022-10-30T06:36:18.378Z,405.95
2022-10-30T06:38:46.130Z,382.13
2022-10-30T06:41:17.511Z,399.65
2022-10-30T06:44:01.031Z,365.67
2022-10-30T06:46:33.702Z,392.05
2022-10-30T06:49:01.932Z,403.90
2022-10-30T06:51:30.807Z,385.15
2022-10-30T06:53:59.842Z,390.17
2022-10-30T06:56:39.792Z,395.13
2022-10-30T06:59:20.756Z,420.77
2022-10-30T07:01:59.203Z,377.67
2022-10-30T07:04:36.990Z,384.63
2022-10-30T07:07:05.026Z,417.65
2022-10-30T07:09:32.752Z,385.85
2022-10-30T07:12:06.588Z,406.83
2022-10-30T07:14:43.152Z,403.92
2022-10-30T07:17:31.072Z,378.85
2022-10-30T07:20:03.101Z,410.15
2022-10-30T07:22:31.687Z,385.25
2022-10-30T07:24:59.961Z,433.35
2022-10-30T07:27:43.472Z,424.63
2022-10-30T07:30:28.754Z,405.67
2022-10-30T07:33:12.242Z,417.73
2022-10-30T07:36:01.407Z,423.10
2022-10-30T07:38:52.415Z,411.73
2022-10-30T07:41:31.805Z,452.33
2022-10-30T07:44:18.583Z,421.25
2022-10-30T07:46:58.481Z,442.95
2022-10-30T07:49:39.692Z,437.58
2022-10-30T07:52:11.785Z,455.38
2022-10-30T07:54:42.215Z,459.52
2022-10-30T07:57:25.616Z,486.45
2022-10-30T08:00:28.300Z,463.33
2022-10-30T08:03:07.198Z,433.60
2022-10-30T08:05:46.873Z,480.50
2022-10-30T08:08:20.964Z,483.23
2022-10-30T08:10:56.650Z,467.42
2022-10-30T08:13:25.420Z,504.45
2022-10-30T08:15:53.091Z,483.77
2022-10-30T08:18:22.139Z,514.05
2022-10-30T08:20:51.277Z,504.25
2022-10-30T08:23:21.683Z,510.70
2022-10-30T08:25:49.489Z,513.97
2022-10-30T08:28:17.148Z,512.50
2022-10-30T08:30:45.733Z,479.17
2022-10-30T08:33:16.975Z,515.25
2022-10-30T08:36:00.000Z,506.02
2022-10-30T08:38:28.807Z,515.67
2022-10-30T08:41:19.564Z,496.15
2022-10-30T08:43:50.266Z,534.65
2022-10-30T08:46:18.923Z,525.60
2022-10-30T08:48:47.186Z,499.58
2022-10-30T08:51:16.207Z,537.33
2022-10-30T08:53:46.030Z,524.90
2022-10-30T08:56:15.879Z,513.85
2022-10-30T08:58:56.003Z,510.45
2022-10-30T09:01:23.965Z,521.08
2022-10-30T09:04:10.089Z,510.63
2022-10-30T09:06:57.967Z,525.67
2022-10-30T09:09:48.123Z,527.80
2022-10-30T09:12:17.192Z,537.15
2022-10-30T09:14:46.779Z,546.15
2022-10-30T09:17:14.678Z,538.58
2022-10-30T09:19:45.695Z,551.08
2022-10-30T09:22:20.043Z,569.92
2022-10-30T09:24:47.787Z,561.22
2022-10-30T09:27:48.168Z,531.60
2022-10-30T09:30:17.630Z,550.40
2022-10-30T09:32:55.386Z,554.92
2022-10-30T09:35:27.539Z,570.13
2022-10-30T09:37:57.516Z,555.75
2022-10-30T09:40:35.534Z,579.72
2022-10-30T09:43:09.573Z,570.67
2022-10-30T09:46:09.039Z,581.80
2022-10-30T09:49:01.889Z,585.28
2022-10-30T09:51:57.039Z,557.05
2022-10-30T09:54:39.570Z,543.13
2022-10-30T09:57:19.637Z,553.05
2022-10-30T09:59:59.988Z,557.42
2022-10-30T10:02:37.691Z,561.22
2022-10-30T10:05:14.151Z,579.78
2022-10-30T10:08:05.040Z,555.30
2022-10-30T10:10:55.588Z,566.10
2022-10-30T10:13:33.638Z,549.20
2022-10-30T10:16:08.659Z,541.17
2022-10-30T10:18:47.398Z,540.22
2022-10-30T10:21:24.870Z,538.67
2022-10-30T10:23:55.412Z,530.85
2022-10-30T10:26:39.607Z,493.77
2022-10-30T10:29:32.267Z,478.88
2022-10-30T10:32:14.090Z,508.13
2022-10-30T10:34:53.423Z,460.23
2022-10-30T10:37:31.650Z,469.08
2022-10-30T10:40:13.141Z,490.83
2022-10-30T10:42:53.593Z,485.60
2022-10-30T10:45:30.241Z,494.65
2022-10-30T10:50:49.437Z,479.42
2022-10-30T10:53:23.652Z,468.10
2022-10-30T10:55:53.910Z,479.02
2022-10-30T10:58:29.189Z,483.55
2022-10-30T11:00:58.913Z,470.40
2022-10-30T11:03:33.657Z,466.40
2022-10-30T11:06:09.251Z,478.98
2022-10-30T11:08:37.622Z,466.77
2022-10-30T11:11:07.592Z,470.58
2022-10-30T11:13:39.632Z,465.33
2022-10-30T11:16:18.473Z,476.92
2022-10-30T11:18:48.556Z,439.27
2022-10-30T11:21:19.817Z,471.15
2022-10-30T11:23:49.294Z,468.17
2022-10-30T11:26:34.498Z,439.10
2022-10-30T11:29:12.270Z,449.33
2022-10-30T11:31:41.482Z,450.48
2022-10-30T11:34:31.734Z,397.50
2022-10-30T11:36:59.494Z,389.90
2022-10-30T11:39:29.043Z,403.13
2022-10-30T11:42:04.600Z,403.85
2022-10-30T11:44:36.845Z,408.98
2022-10-30T11:47:06.161Z,381.90
2022-10-30T11:49:39.619Z,368.85
2022-10-30T11:52:08.891Z,386.30
2022-10-30T11:54:39.417Z,360.98
2022-10-30T11:57:23.535Z,361.65
2022-10-30T11:59:59.313Z,367.48
2022-10-30T12:02:42.812Z,367.73
2022-10-30T12:05:31.561Z,372.00
2022-10-30T12:08:18.256Z,361.63
2022-10-30T12:10:54.798Z,360.10
2022-10-30T12:13:24.559Z,348.48
2022-10-30T12:16:07.706Z,336.23
2022-10-30T12:18:35.744Z,335.33
2022-10-30T12:21:04.604Z,336.33
2022-10-30T12:23:33.302Z,307.60
2022-10-30T12:26:02.693Z,307.45
2022-10-30T12:28:32.405Z,315.65
2022-10-30T12:31:07.301Z,288.73
2022-10-30T12:33:39.421Z,287.25
2022-10-30T12:36:11.091Z,276.05
2022-10-30T12:38:44.234Z,270.40
2022-10-30T12:41:18.789Z,268.58
2022-10-30T12:43:51.001Z,261.08
2022-10-30T12:46:34.654Z,253.50
2022-10-30T12:49:12.554Z,249.77
2022-10-30T12:51:47.237Z,264.95
2022-10-30T12:54:22.718Z,226.30
2022-10-30T12:56:57.005Z,246.30
2022-10-30T12:59:35.799Z,248.65
2022-10-30T13:02:19.338Z,246.88
2022-10-30T13:04:51.336Z,230.90
2022-10-30T13:07:24.496Z,253.23
2022-10-30T13:10:03.146Z,236.35
2022-10-30T13:12:35.246Z,248.82
2022-10-30T13:15:07.450Z,250.85
2022-10-30T13:17:36.475Z,225.27
2022-10-30T13:20:13.746Z,245.15
2022-10-30T13:22:48.466Z,240.40
2022-10-30T13:25:24.563Z,259.48
2022-10-30T13:27:56.730Z,240.25
2022-10-30T13:30:28.431Z,240.43
2022-10-30T13:33:08.604Z,263.98
2022-10-30T13:35:42.573Z,276.83
2022-10-30T13:38:36.394Z,266.65
2022-10-30T13:41:17.011Z,285.38
2022-10-30T13:43:55.799Z,284.58
2022-10-30T13:46:31.737Z,289.05
2022-10-30T13:49:11.004Z,271.60
2022-10-30T13:51:43.233Z,296.20
2022-10-30T13:54:18.333Z,285.73
2022-10-30T13:56:48.440Z,303.73
2022-10-30T13:59:34.644Z,301.42
2022-10-30T14:02:11.306Z,326.13
2022-10-30T14:04:49.440Z,322.27
2022-10-30T14:07:25.238Z,327.67
2022-10-30T14:10:00.276Z,311.40
2022-10-30T14:12:52.957Z,321.00
2022-10-30T14:15:28.547Z,303.63
2022-10-30T14:18:28.537Z,314.38
2022-10-30T14:20:59.308Z,326.77
2022-10-30T14:23:33.513Z,331.70
2022-10-30T14:26:21.452Z,321.95
2022-10-30T14:28:51.039Z,316.25
2022-10-30T14:31:21.157Z,333.65
2022-10-30T14:33:50.702Z,326.90
2022-10-30T14:36:25.207Z,309.92
2022-10-30T14:38:55.008Z,338.67
2022-10-30T14:41:35.852Z,338.17
2022-10-30T14:44:20.598Z,342.45
2022-10-30T14:47:01.887Z,366.45
2022-10-30T14:49:45.057Z,380.23
2022-10-30T14:52:23.070Z,370.35
2022-10-30T14:55:00.367Z,390.05
2022-10-30T14:57:47.806Z,374.88
2022-10-30T15:00:30.541Z,390.70
2022-10-30T15:03:05.110Z,374.08
2022-10-30T15:05:44.299Z,409.75
2022-10-30T15:08:37.417Z,409.38
2022-10-30T15:11:22.409Z,414.85
2022-10-30T15:13:54.417Z,405.95
2022-10-30T15:16:23.346Z,440.10
2022-10-30T15:19:00.141Z,424.38
2022-10-30T15:21:29.729Z,434.67
2022-10-30T15:24:01.109Z,447.02
2022-10-30T15:26:34.926Z,457.98
2022-10-30T15:29:03.628Z,443.35
2022-10-30T15:31:33.154Z,458.70
2022-10-30T15:34:00.856Z,439.25
2022-10-30T15:36:31.388Z,476.52
2022-10-30T15:39:10.915Z,446.65
2022-10-30T15:41:44.743Z,468.38
2022-10-30T15:46:49.622Z,470.73
2022-10-30T15:49:25.890Z,451.02
2022-10-30T15:51:53.664Z,462.73
2022-10-30T15:54:24.587Z,468.02
2022-10-30T15:57:27.558Z,476.90
2022-10-30T15:59:52.427Z,465.58
2022-10-30T16:02:22.882Z,445.13
2022-10-30T16:04:51.194Z,419.08
2022-10-30T16:07:21.172Z,444.42
2022-10-30T16:09:58.038Z,429.65
2022-10-30T16:12:27.570Z,446.15
2022-10-30T16:14:56.315Z,452.13
2022-10-30T16:17:25.326Z,435.70
2022-10-30T16:19:55.603Z,448.33
2022-10-30T16:22:27.640Z,457.00
2022-10-30T16:24:57.912Z,428.80
2022-10-30T16:27:27.321Z,457.17
2022-10-30T16:29:58.420Z,441.08
2022-10-30T16:32:28.323Z,412.52
2022-10-30T16:34:58.180Z,424.25
2022-10-30T16:37:29.094Z,409.05
2022-10-30T16:40:00.935Z,428.23
2022-10-30T16:42:28.853Z,434.17
2022-10-30T16:45:45.313Z,419.73
2022-10-30T16:48:19.783Z,403.40
2022-10-30T16:50:48.195Z,390.30
2022-10-30T16:53:20.581Z,395.92
2022-10-30T16:55:49.850Z,399.35
2022-10-30T16:58:19.671Z,407.77
2022-10-30T17:00:52.405Z,410.90
2022-10-30T17:03:26.378Z,390.60
2022-10-30T17:05:59.312Z,409.88
2022-10-30T17:08:34.408Z,409.45
2022-10-30T17:11:05.575Z,407.63
2022-10-30T17:13:36.047Z,423.40
2022-10-30T17:16:21.835Z,424.98
2022-10-30T17:18:52.453Z,424.20
2022-10-30T17:21:23.307Z,399.33
2022-10-30T17:23:52.558Z,412.40
2022-10-30T17:26:21.666Z,404.67
2022-10-30T17:28:49.680Z,419.65
2022-10-30T17:31:22.990Z,417.83
2022-10-30T17:34:06.863Z,409.63
2022-10-30T17:36:34.499Z,416.05
2022-10-30T17:39:02.121Z,416.58
2022-10-30T17:41:31.345Z,439.20
2022-10-30T17:43:59.208Z,423.77
2022-10-30T17:46:26.835Z,438.95
2022-10-30T17:48:54.704Z,431.98
2022-10-30T17:51:22.348Z,429.88
2022-10-30T17:53:51.086Z,452.10
2022-10-30T17:56:21.693Z,416.17
2022-10-30T17:58:50.679Z,440.42
2022-10-30T18:01:21.393Z,475.23
2022-10-30T18:03:49.470Z,508.52
2022-10-30T18:06:18.836Z,496.63
2022-10-30T18:08:50.704Z,533.53
2022-10-30T18:11:21.209Z,504.67
2022-10-30T18:13:51.595Z,521.38
2022-10-30T18:16:20.153Z,500.95
2022-10-30T18:18:49.999Z,514.67
2022-10-30T18:21:20.141Z,529.90
2022-10-30T18:23:55.073Z,501.23
2022-10-30T18:26:24.822Z,504.67
2022-10-30T18:28:54.305Z,523.90
2022-10-30T18:31:23.729Z,487.67
2022-10-30T18:33:51.820Z,515.70
2022-10-30T18:36:21.997Z,501.70
2022-10-30T18:38:50.094Z,524.28
2022-10-30T18:41:20.210Z,491.58
2022-10-30T18:43:47.848Z,488.27
2022-10-30T18:46:17.472Z,503.13
2022-10-30T18:48:45.517Z,480.27
2022-10-30T18:51:17.892Z,493.92
2022-10-30T18:53:51.331Z,507.20
2022-10-30T18:56:20.202Z,494.25
2022-10-30T18:58:47.830Z,457.77
2022-10-30T19:01:18.228Z,457.48
2022-10-30T19:03:47.261Z,466.50
2022-10-30T19:06:17.008Z,499.02
2022-10-30T19:08:44.779Z,459.08
2022-10-30T19:11:15.801Z,466.63
2022-10-30T19:13:45.309Z,453.60
2022-10-30T19:16:15.106Z,452.38
2022-10-30T19:18:44.528Z,477.65
2022-10-30T19:21:16.659Z,450.05
2022-10-30T19:23:44.674Z,472.10
2022-10-30T19:26:14.765Z,452.35
2022-10-30T19:28:43.026Z,455.95
2022-10-30T19:31:14.020Z,471.08
2022-10-30T19:33:41.821Z,463.90
2022-10-30T19:39:11.024Z,462.58
2022-10-30T19:41:39.849Z,441.95
2022-10-30T19:44:07.507Z,433.33
2022-10-30T19:46:35.267Z,439.02
2022-10-30T19:49:15.295Z,447.90
2022-10-30T19:51:43.000Z,444.77
2022-10-30T19:54:12.002Z,448.77
2022-10-30T19:56:39.640Z,448.00
2022-10-30T19:59:10.485Z,434.50
2022-10-30T20:01:38.297Z,433.00
2022-10-30T20:04:06.024Z,441.67
2022-10-30T20:06:33.594Z,421.63
2022-10-30T20:09:02.452Z,438.95
2022-10-30T20:11:31.864Z,447.35
2022-10-30T20:13:59.520Z,433.65
2022-10-30T20:16:27.159Z,435.30
2022-10-30T20:18:54.788Z,443.38
2022-10-30T20:21:22.474Z,444.67
2022-10-30T20:23:50.920Z,438.40
2022-10-30T20:26:24.870Z,428.08
2022-10-30T20:28:54.329Z,416.27
2022-10-30T20:31:22.334Z,417.73
2022-10-30T20:33:49.970Z,437.67
2022-10-30T20:36:17.596Z,438.23
2022-10-30T20:38:45.515Z,445.75
2022-10-30T20:41:20.895Z,459.80
2022-10-30T20:43:49.890Z,403.42
2022-10-30T20:46:19.497Z,421.08
2022-10-30T20:48:47.321Z,442.50
2022-10-30T20:51:15.723Z,444.58
2022-10-30T20:53:43.568Z,421.35
2022-10-30T20:56:11.776Z,471.77
2022-10-30T20:58:39.419Z,434.17
2022-10-30T21:01:07.411Z,442.42
2022-10-30T21:04:00.541Z,424.90
2022-10-30T21:06:49.782Z,427.50
2022-10-30T21:09:37.694Z,426.00
2022-10-30T21:12:25.952Z,424.00
2022-10-30T21:15:13.894Z,414.58
2022-10-30T21:18:02.216Z,406.83
2022-10-30T21:20:51.759Z,426.88
2022-10-30T21:23:39.676Z,408.55
2022-10-30T21:26:27.619Z,425.92
2022-10-30T21:29:15.572Z,417.67
2022-10-30T21:32:03.462Z,441.55
2022-10-30T21:34:51.395Z,427.50
2022-10-30T21:37:40.863Z,397.08
2022-10-30T21:40:28.828Z,413.95
2022-10-30T21:43:16.763Z,407.08
2022-10-30T21:46:06.245Z,407.67
2022-10-30T21:48:54.802Z,410.48
2022-10-30T21:51:42.705Z,398.60
2022-10-30T21:54:31.970Z,393.83
2022-10-30T21:57:19.970Z,420.75
2022-10-30T22:00:09.238Z,421.40
2022-10-30T22:02:57.282Z,417.70
2022-10-30T22:05:45.188Z,406.80
2022-10-30T22:08:33.576Z,385.75
2022-10-30T22:11:24.473Z,401.48
2022-10-30T22:14:12.658Z,401.02
2022-10-30T22:17:00.569Z,403.15
2022-10-30T22:19:48.513Z,399.83
2022-10-30T22:22:36.398Z,408.30
2022-10-30T22:25:24.272Z,419.48
2022-10-30T22:28:13.554Z,396.90
2022-10-30T22:31:05.100Z,398.55
2022-10-30T22:33:53.467Z,425.17
2022-10-30T22:36:41.415Z,421.13
2022-10-30T22:39:29.328Z,423.15
2022-10-30T22:42:17.268Z,396.38
2022-10-30T22:45:07.837Z,421.45
2022-10-30T22:47:56.111Z,400.55
2022-10-30T22:50:44.187Z,416.42
2022-10-30T22:53:33.094Z,407.88
2022-10-30T22:56:22.885Z,387.27
2022-10-30T22:59:13.444Z,413.75
2022-10-30T23:02:02.785Z,401.50
2022-10-30T23:04:50.778Z,404.00
2022-10-30T23:07:38.692Z,381.52
2022-10-30T23:10:26.609Z,399.00
2022-10-30T23:13:14.540Z,393.02
2022-10-30T23:16:03.081Z,390.90
2022-10-30T23:18:55.351Z,383.38
2022-10-30T23:21:43.294Z,377.67
2022-10-30T23:24:31.221Z,402.60
2022-10-30T23:27:19.145Z,370.55
2022-10-30T23:30:08.717Z,392.67
2022-10-30T23:32:56.815Z,386.00
2022-10-30T23:35:46.179Z,399.33
2022-10-30T23:38:34.217Z,385.13
2022-10-30T23:41:22.338Z,401.35
2022-10-30T23:44:13.199Z,390.67
2022-10-30T23:47:01.286Z,399.33
2022-10-30T23:49:49.191Z,393.15
2022-10-30T23:52:38.399Z,377.73
2022-10-30T23:55:26.326Z,411.65
2022-10-30T23:58:14.266Z,384.70
